Time;durP1;ratioP1;P1;durP2;ratioP2;P2;SDS_P1;SDS_P2;PMS_P1;PMS_P2;Temp;Humidity;BMP_temperature;BMP_pressure;BME280_temperature;BME280_humidity;BME280_pressure;Samples;Min_cycle;Max_cycle;Signal;HPM_P1;HPM_P2
2021/07/20 00:01:30;;;;;;;10.10;8.07;;;23.30;63.90;;;;;;10462045;28;20112;-60
2021/07/20 00:06:31;;;;;;;9.05;7.18;;;23.30;63.90;;;;;;10444174;28;20458;-60
2021/07/20 00:11:34;;;;;;;11.00;8.55;;;23.30;63.80;;;;;;10443308;28;20504;-60
2021/07/20 00:16:35;;;;;;;10.07;8.00;;;23.30;63.70;;;;;;10461476;28;20072;-60
2021/07/20 00:21:35;;;;;;;9.45;7.68;;;23.30;63.60;;;;;;10450228;28;20113;-59
2021/07/20 00:26:36;;;;;;;9.40;7.55;;;23.30;63.60;;;;;;10461323;28;20043;-60
2021/07/20 00:31:36;;;;;;;11.27;7.93;;;23.30;63.60;;;;;;10460804;28;20492;-59
2021/07/20 00:36:37;;;;;;;10.98;8.02;;;23.20;63.40;;;;;;10461034;28;20033;-60
2021/07/20 00:41:38;;;;;;;11.10;6.95;;;23.20;63.30;;;;;;10460153;28;20044;-59
2021/07/20 00:46:39;;;;;;;10.40;8.00;;;23.20;63.30;;;;;;10442859;28;20037;-60
2021/07/20 00:51:39;;;;;;;10.13;7.75;;;23.20;63.40;;;;;;10440234;28;20029;-60
2021/07/20 00:56:41;;;;;;;9.45;7.45;;;23.20;63.30;;;;;;10459869;28;20455;-60
2021/07/20 01:01:41;;;;;;;8.93;7.25;;;23.20;63.20;;;;;;10459960;28;20036;-60
2021/07/20 01:06:43;;;;;;;11.10;8.05;;;23.20;63.20;;;;;;10459695;28;20029;-60
2021/07/20 01:11:45;;;;;;;9.38;7.43;;;23.20;63.20;;;;;;10441623;28;20027;-60
2021/07/20 01:16:46;;;;;;;8.73;7.40;;;23.20;63.20;;;;;;10441476;28;20033;-60
2021/07/20 01:21:51;;;;;;;9.35;7.10;;;23.20;63.10;;;;;;10442707;28;20456;-60
2021/07/20 01:26:53;;;;;;;11.85;8.27;;;23.10;63.00;;;;;;10441180;28;20039;-60
2021/07/20 01:31:55;;;;;;;9.88;7.70;;;23.10;63.50;;;;;;10458349;28;20032;-60
2021/07/20 01:36:56;;;;;;;9.13;7.05;;;23.10;62.90;;;;;;10440912;28;20492;-60
2021/07/20 01:41:59;;;;;;;11.32;7.72;;;23.10;62.90;;;;;;10440059;28;20135;-60
2021/07/20 01:47:00;;;;;;;9.90;7.63;;;23.10;62.80;;;;;;10440565;28;20401;-59
2021/07/20 01:52:01;;;;;;;10.02;7.47;;;23.10;62.80;;;;;;10439963;28;20029;-59
2021/07/20 01:57:03;;;;;;;9.65;7.10;;;23.10;62.70;;;;;;10457623;28;20061;-60
2021/07/20 02:02:12;;;;;;;10.85;7.57;;;23.00;62.70;;;;;;10439396;28;20032;-60
2021/07/20 02:12:35;;;;;;;10.25;7.60;;;23.10;62.70;;;;;;10442662;28;20127;-60
2021/07/20 02:17:41;;;;;;;10.70;7.90;;;23.00;62.60;;;;;;10426790;28;20413;-60
2021/07/20 02:22:43;;;;;;;11.60;8.55;;;23.00;62.50;;;;;;10442982;28;20082;-60
2021/07/20 02:27:45;;;;;;;10.23;7.93;;;23.00;62.50;;;;;;10439006;28;20040;-59
2021/07/20 02:32:47;;;;;;;9.73;6.93;;;23.00;62.50;;;;;;10438596;28;20465;-60
2021/07/20 02:37:53;;;;;;;11.30;7.22;;;23.00;62.50;;;;;;10456339;28;20052;-60
2021/07/20 02:42:57;;;;;;;9.90;7.15;;;23.00;62.50;;;;;;10438152;28;20056;-60
2021/07/20 02:47:58;;;;;;;9.52;7.82;;;23.00;62.30;;;;;;10438245;28;20021;-59
2021/07/20 02:52:59;;;;;;;10.73;7.82;;;22.90;62.30;;;;;;10437889;28;20071;-59
2021/07/20 02:58:01;;;;;;;10.43;8.25;;;22.90;62.20;;;;;;10437929;28;20540;-60
2021/07/20 03:03:02;;;;;;;12.43;8.15;;;22.90;62.20;;;;;;10437474;28;20040;-59
2021/07/20 03:08:05;;;;;;;9.57;8.23;;;22.90;62.20;;;;;;10455357;28;20032;-60
2021/07/20 03:13:12;;;;;;;10.85;8.60;;;22.90;62.10;;;;;;10454947;28;20036;-60
2021/07/20 03:18:14;;;;;;;10.25;8.05;;;22.90;62.20;;;;;;10447629;28;20072;-60
2021/07/20 03:23:15;;;;;;;9.20;7.40;;;22.90;62.10;;;;;;10468384;28;20059;-60
2021/07/20 03:28:17;;;;;;;9.77;7.85;;;22.90;62.10;;;;;;10445396;28;20053;-60
2021/07/20 03:33:22;;;;;;;8.65;7.35;;;22.90;62.10;;;;;;10427662;28;20048;-60
2021/07/20 03:38:23;;;;;;;10.45;8.15;;;22.90;62.10;;;;;;10460019;28;20040;-60
2021/07/20 03:43:25;;;;;;;11.90;8.52;;;22.80;62.00;;;;;;10462282;28;20052;-60
2021/07/20 03:48:25;;;;;;;9.68;7.45;;;22.80;61.90;;;;;;10462306;28;20032;-60
2021/07/20 03:53:28;;;;;;;9.02;6.75;;;22.80;62.00;;;;;;10444381;28;20033;-60
2021/07/20 03:58:30;;;;;;;10.05;7.28;;;22.80;62.50;;;;;;10444709;28;20083;-60
2021/07/20 04:03:34;;;;;;;9.90;7.43;;;22.80;61.90;;;;;;10444124;28;20032;-60
2021/07/20 04:08:38;;;;;;;10.73;7.55;;;22.80;61.80;;;;;;10461621;28;20058;-60
2021/07/20 04:13:39;;;;;;;11.45;8.25;;;22.80;61.80;;;;;;10444284;28;20112;-60
2021/07/20 04:18:40;;;;;;;9.65;7.78;;;22.80;61.80;;;;;;10426707;28;20033;-60
2021/07/20 04:23:42;;;;;;;9.60;7.70;;;22.70;61.70;;;;;;10434383;28;20056;-59
2021/07/20 04:28:43;;;;;;;9.63;7.07;;;22.70;61.70;;;;;;10435296;28;20478;-60
2021/07/20 04:33:47;;;;;;;10.75;8.18;;;22.70;61.70;;;;;;10436493;28;20029;-60
2021/07/20 04:38:48;;;;;;;10.15;8.43;;;22.70;61.70;;;;;;10445388;28;20053;-59
2021/07/20 04:43:49;;;;;;;11.07;7.85;;;22.70;61.80;;;;;;10430000;28;20572;-55
2021/07/20 04:48:50;;;;;;;13.23;8.40;;;22.70;61.70;;;;;;10442080;28;20033;-60
2021/07/20 04:53:51;;;;;;;14.10;8.70;;;22.70;62.90;;;;;;10441136;28;20078;-60
2021/07/20 04:58:52;;;;;;;10.60;7.45;;;22.80;63.50;;;;;;10440735;28;20081;-58
2021/07/20 05:03:56;;;;;;;11.45;7.53;;;22.80;63.50;;;;;;10441164;28;20024;-63
2021/07/20 05:08:58;;;;;;;11.77;8.48;;;22.80;63.90;;;;;;10441009;28;20781;-63
2021/07/20 05:13:59;;;;;;;11.93;7.80;;;22.90;64.00;;;;;;10443977;28;20029;-64
2021/07/20 05:19:01;;;;;;;15.10;7.97;;;22.90;64.00;;;;;;10440773;28;20029;-63
2021/07/20 05:24:06;;;;;;;15.13;8.00;;;22.90;64.30;;;;;;10460090;28;20031;-63
2021/07/20 05:29:07;;;;;;;12.20;7.93;;;22.90;64.50;;;;;;10444389;28;20041;-62
2021/07/20 05:34:07;;;;;;;12.52;8.27;;;22.90;64.50;;;;;;10445428;28;20032;-62
2021/07/20 05:39:11;;;;;;;13.73;7.78;;;22.90;64.60;;;;;;10439962;28;20051;-62
2021/07/20 05:44:13;;;;;;;10.73;7.22;;;22.80;64.30;;;;;;10439647;28;20657;-63
2021/07/20 05:49:15;;;;;;;13.95;8.02;;;22.80;64.00;;;;;;10456380;28;20036;-63
2021/07/20 05:54:16;;;;;;;12.85;8.25;;;22.80;64.40;;;;;;10445957;28;20116;-63
2021/07/20 05:59:18;;;;;;;14.05;8.10;;;22.80;64.50;;;;;;10442216;28;20032;-63
2021/07/20 06:04:21;;;;;;;16.13;7.78;;;22.80;64.20;;;;;;10432539;28;20028;-61
2021/07/20 06:09:22;;;;;;;13.48;8.05;;;22.80;64.80;;;;;;10434686;28;20388;-62
2021/07/20 06:14:24;;;;;;;13.38;8.00;;;22.80;64.70;;;;;;10456297;28;20025;-62
2021/07/20 06:19:26;;;;;;;10.18;7.00;;;22.80;64.90;;;;;;10456371;28;20518;-63
2021/07/20 06:24:31;;;;;;;11.70;7.95;;;22.80;64.90;;;;;;10441425;28;20369;-63
2021/07/20 06:29:34;;;;;;;11.98;7.63;;;22.80;64.90;;;;;;10438946;28;20021;-62
2021/07/20 06:34:37;;;;;;;12.68;7.18;;;22.80;65.20;;;;;;10415287;28;20152;-62
2021/07/20 06:39:38;;;;;;;12.82;7.35;;;22.80;65.00;;;;;;10435890;28;20098;-63
2021/07/20 06:44:43;;;;;;;13.43;7.35;;;22.80;65.20;;;;;;10441167;28;20029;-63
2021/07/20 06:49:49;;;;;;;11.45;7.30;;;22.80;65.10;;;;;;10453637;28;20024;-62
2021/07/20 06:54:50;;;;;;;9.20;6.78;;;22.80;65.00;;;;;;10454226;28;20040;-62
2021/07/20 06:59:51;;;;;;;10.27;6.82;;;22.80;65.40;;;;;;10454423;28;20037;-61
2021/07/20 07:05:01;;;;;;;12.68;7.57;;;22.80;65.40;;;;;;10397722;28;20398;-61
2021/07/20 07:10:05;;;;;;;7.72;6.93;;;22.80;65.20;;;;;;10431988;28;20029;-59
2021/07/20 07:15:08;;;;;;;9.73;6.63;;;22.80;65.20;;;;;;10448804;28;20044;-60
2021/07/20 07:20:10;;;;;;;10.80;6.88;;;22.80;64.90;;;;;;10442363;28;20027;-61
2021/07/20 07:25:12;;;;;;;9.27;6.55;;;22.80;64.50;;;;;;10434971;28;20132;-61
2021/07/20 07:30:15;;;;;;;9.27;6.38;;;22.80;64.20;;;;;;10436590;28;20025;-61
2021/07/20 07:35:16;;;;;;;8.57;6.05;;;22.80;64.40;;;;;;10441723;28;20035;-61
2021/07/20 07:40:18;;;;;;;9.63;5.88;;;22.80;64.20;;;;;;10454148;28;20194;-61
2021/07/20 07:45:18;;;;;;;9.25;6.20;;;22.80;64.10;;;;;;10436790;28;20061;-62
2021/07/20 07:50:20;;;;;;;10.00;6.80;;;22.80;64.20;;;;;;10454533;28;20056;-61
2021/07/20 07:55:22;;;;;;;8.30;6.70;;;22.80;64.00;;;;;;10436798;28;20112;-61
2021/07/20 08:00:27;;;;;;;8.63;6.43;;;22.80;64.00;;;;;;10437904;28;20033;-61
2021/07/20 08:05:28;;;;;;;8.23;6.18;;;22.80;64.10;;;;;;10444290;28;20029;-61
2021/07/20 08:10:30;;;;;;;10.77;7.20;;;22.80;64.00;;;;;;10461578;28;20076;-61
2021/07/20 08:15:33;;;;;;;12.07;6.47;;;22.80;64.20;;;;;;10443390;28;20380;-61
2021/07/20 08:20:34;;;;;;;8.98;6.78;;;22.80;64.00;;;;;;10449637;28;20494;-61
2021/07/20 08:25:44;;;;;;;10.10;6.95;;;22.80;64.10;;;;;;10443249;28;20082;-61
2021/07/20 08:30:49;;;;;;;9.40;6.20;;;22.80;63.90;;;;;;10443725;28;20108;-61
2021/07/20 08:35:54;;;;;;;8.38;6.13;;;22.90;64.00;;;;;;10460454;28;20025;-61
2021/07/20 08:40:58;;;;;;;9.48;6.00;;;22.90;64.00;;;;;;10442900;28;20049;-61
2021/07/20 08:46:19;;;;;;;7.88;5.55;;;22.90;64.00;;;;;;10459961;28;20029;-61
2021/07/20 08:51:58;;;;;;;8.75;6.95;;;22.90;64.00;;;;;;10459449;28;20068;-61
2021/07/20 08:57:03;;;;;;;8.45;6.15;;;22.90;63.80;;;;;;10428554;28;20047;-61
2021/07/20 09:02:47;;;;;;;8.15;6.38;;;22.90;63.90;;;;;;10460070;28;20033;-61
2021/07/20 09:08:18;;;;;;;8.05;5.80;;;22.90;64.20;;;;;;10459059;28;20078;-60
2021/07/20 09:13:28;;;;;;;10.52;6.35;;;22.90;64.10;;;;;;10458408;28;20056;-61
2021/07/20 09:18:49;;;;;;;9.07;5.53;;;22.90;64.00;;;;;;10458883;28;20124;-61
2021/07/20 09:24:18;;;;;;;7.25;5.90;;;22.90;64.00;;;;;;10447797;28;20043;-61
2021/07/20 09:29:25;;;;;;;7.65;5.88;;;22.90;63.80;;;;;;10458583;28;20029;-61
2021/07/20 09:35:08;;;;;;;10.48;6.93;;;22.90;63.80;;;;;;10440826;28;20025;-61
2021/07/20 09:40:56;;;;;;;8.30;5.93;;;22.90;64.10;;;;;;10443463;28;20098;-61
2021/07/20 09:46:03;;;;;;;8.52;5.80;;;22.90;63.60;;;;;;10317562;28;20131;-62
2021/07/20 09:51:23;;;;;;;8.20;5.55;;;22.90;63.60;;;;;;10430775;28;20040;-62
2021/07/20 09:56:52;;;;;;;9.30;6.97;;;22.90;63.60;;;;;;10457386;28;20500;-61
2021/07/20 10:01:57;;;;;;;8.45;6.15;;;22.90;63.70;;;;;;10434848;28;20124;-61
2021/07/20 10:07:18;;;;;;;8.90;5.68;;;22.90;63.20;;;;;;10442482;28;20029;-62
2021/07/20 10:13:04;;;;;;;8.90;6.78;;;22.90;63.90;;;;;;10456725;28;20396;-61
2021/07/20 10:18:17;;;;;;;7.32;5.20;;;23.00;64.00;;;;;;10457093;28;20077;-61
2021/07/20 10:23:49;;;;;;;7.10;5.47;;;22.90;63.40;;;;;;10444307;28;20476;-61
2021/07/20 10:29:31;;;;;;;9.15;6.28;;;23.00;63.70;;;;;;10432888;28;20033;-62
2021/07/20 10:34:32;;;;;;;9.35;5.75;;;23.00;63.80;;;;;;10442294;28;20086;-62
2021/07/20 10:40:06;;;;;;;8.95;6.43;;;22.90;63.80;;;;;;10443309;28;20044;-63
2021/07/20 10:45:11;;;;;;;9.82;6.78;;;22.90;63.50;;;;;;10444617;28;20037;-62
2021/07/20 10:50:32;;;;;;;9.10;6.45;;;23.00;64.00;;;;;;10442166;28;20028;-62
2021/07/20 10:55:53;;;;;;;7.30;5.28;;;23.00;64.20;;;;;;10438882;28;20029;-62
2021/07/20 11:01:18;;;;;;;8.32;6.00;;;23.00;64.20;;;;;;10454809;28;20059;-61
2021/07/20 11:06:21;;;;;;;8.75;5.88;;;23.00;64.30;;;;;;10444612;28;20488;-61
2021/07/20 11:11:41;;;;;;;7.53;5.68;;;23.00;64.20;;;;;;10444583;28;20048;-61
2021/07/20 11:16:43;;;;;;;8.93;6.45;;;23.10;64.30;;;;;;10439089;28;20461;-61
2021/07/20 11:21:45;;;;;;;9.60;6.70;;;23.10;64.10;;;;;;10443579;28;20028;-61
2021/07/20 11:26:46;;;;;;;7.45;5.75;;;23.10;63.90;;;;;;10435381;28;20384;-60
2021/07/20 11:31:55;;;;;;;9.38;6.03;;;23.10;64.00;;;;;;10454001;28;20087;-60
2021/07/20 11:37:07;;;;;;;8.43;6.10;;;23.10;63.80;;;;;;10431820;28;20156;-61
2021/07/20 11:42:43;;;;;;;9.10;6.38;;;23.10;63.90;;;;;;10425955;28;20049;-60
2021/07/20 11:47:48;;;;;;;8.45;6.47;;;23.20;63.90;;;;;;10442691;28;20127;-59
2021/07/20 11:53:22;;;;;;;10.85;6.63;;;23.20;63.80;;;;;;10455123;28;20052;-60
2021/07/20 11:58:53;;;;;;;9.00;5.75;;;23.20;63.60;;;;;;10452676;28;20047;-61
2021/07/20 12:05:06;;;;;;;8.82;6.45;;;23.20;63.60;;;;;;10455065;28;20041;-60
2021/07/20 12:10:40;;;;;;;9.93;7.10;;;23.20;63.50;;;;;;10333162;28;20046;-61
2021/07/20 12:15:42;;;;;;;9.13;6.93;;;23.20;63.70;;;;;;10425122;28;20037;-60
2021/07/20 12:20:43;;;;;;;10.27;6.60;;;23.20;63.50;;;;;;10444028;28;20029;-62
2021/07/20 12:25:44;;;;;;;10.38;6.68;;;23.20;63.30;;;;;;10454319;28;20455;-63
2021/07/20 12:30:45;;;;;;;8.02;6.68;;;23.30;63.20;;;;;;10436841;28;20119;-63
2021/07/20 12:35:49;;;;;;;8.13;6.18;;;23.30;63.80;;;;;;10444623;28;20033;-63
2021/07/20 12:41:08;;;;;;;10.88;7.88;;;23.30;63.20;;;;;;10459479;28;20140;-61
2021/07/20 12:46:18;;;;;;;11.27;7.78;;;23.30;63.10;;;;;;10459068;28;20068;-62
2021/07/20 12:51:22;;;;;;;11.98;7.68;;;23.30;63.10;;;;;;10459485;28;20400;-62
2021/07/20 12:56:29;;;;;;;11.90;7.32;;;23.30;62.80;;;;;;10459722;28;20499;-63
2021/07/20 13:01:32;;;;;;;11.25;8.18;;;23.30;62.90;;;;;;10459266;28;20041;-63
2021/07/20 13:06:38;;;;;;;9.63;6.60;;;23.30;63.00;;;;;;10458995;28;20378;-62
2021/07/20 13:11:40;;;;;;;12.27;8.40;;;23.30;63.00;;;;;;10458588;28;20507;-61
2021/07/20 13:16:44;;;;;;;10.45;7.53;;;23.30;62.60;;;;;;10458119;28;20031;-58
2021/07/20 13:21:48;;;;;;;13.35;7.35;;;23.40;62.60;;;;;;10456976;28;20035;-59
2021/07/20 13:26:55;;;;;;;12.30;7.80;;;23.40;62.50;;;;;;10470259;28;20119;-58
2021/07/20 13:31:56;;;;;;;12.02;8.80;;;23.40;62.40;;;;;;10443291;28;20090;-58
2021/07/20 13:36:57;;;;;;;15.75;8.95;;;23.40;62.90;;;;;;10437708;28;20028;-59
2021/07/20 13:41:58;;;;;;;13.23;8.32;;;23.30;63.00;;;;;;10439620;28;20052;-58
2021/07/20 13:47:01;;;;;;;14.85;7.50;;;23.30;63.10;;;;;;10445909;28;20041;-57
2021/07/20 13:52:03;;;;;;;14.02;7.88;;;23.30;63.00;;;;;;10455141;28;20078;-56
2021/07/20 13:57:05;;;;;;;14.93;8.18;;;23.30;62.80;;;;;;10440752;28;20051;-57
2021/07/20 14:02:10;;;;;;;13.57;8.30;;;23.40;62.90;;;;;;10420410;28;20401;-56
2021/07/20 14:07:12;;;;;;;14.07;8.05;;;23.40;62.90;;;;;;10439577;28;20424;-58
2021/07/20 14:12:13;;;;;;;14.07;8.05;;;23.30;62.60;;;;;;10439543;28;20036;-58
2021/07/20 14:17:15;;;;;;;17.95;9.00;;;23.30;62.70;;;;;;10435417;28;20499;-58
2021/07/20 14:22:22;;;;;;;8.93;7.45;;;23.30;62.60;;;;;;10450757;28;20017;-57
2021/07/20 14:27:27;;;;;;;13.93;7.75;;;23.30;62.50;;;;;;10455665;28;20134;-58
2021/07/20 14:32:31;;;;;;;11.68;7.75;;;23.30;62.50;;;;;;10455988;28;20025;-58
2021/07/20 14:37:53;;;;;;;11.45;7.68;;;23.30;62.40;;;;;;10455552;28;20045;-58
2021/07/20 14:42:57;;;;;;;12.23;8.38;;;23.30;62.80;;;;;;10455496;28;20441;-57
2021/07/20 14:48:19;;;;;;;12.00;8.82;;;23.30;62.70;;;;;;10447786;28;20039;-57
2021/07/20 14:53:27;;;;;;;14.23;8.25;;;23.30;62.70;;;;;;10452314;28;20032;-63
2021/07/20 14:58:29;;;;;;;12.95;8.77;;;23.30;62.70;;;;;;10453347;28;20024;-60
2021/07/20 15:03:37;;;;;;;13.45;8.13;;;23.30;62.60;;;;;;10454750;28;20664;-59
2021/07/20 15:08:48;;;;;;;11.47;8.47;;;23.30;62.60;;;;;;10455234;28;20044;-60
2021/07/20 15:13:54;;;;;;;13.68;8.73;;;23.30;62.80;;;;;;10453167;28;20381;-59
2021/07/20 15:19:10;;;;;;;10.63;7.13;;;23.30;62.90;;;;;;10455376;28;20548;-59
2021/07/20 15:24:19;;;;;;;12.90;7.78;;;23.20;62.80;;;;;;10443605;28;20040;-59
2021/07/20 15:29:21;;;;;;;;;;;23.20;62.70;;;;;;10455416;28;20029;-60
2021/07/20 15:34:32;;;;;;;10.65;7.78;;;23.20;62.70;;;;;;10454830;28;20019;-60
2021/07/20 15:39:56;;;;;;;9.25;7.20;;;23.20;62.60;;;;;;10454772;28;20127;-60
2021/07/20 15:45:13;;;;;;;10.50;7.85;;;23.20;62.70;;;;;;10454684;28;20125;-60
2021/07/20 15:50:31;;;;;;;10.52;7.38;;;23.20;62.90;;;;;;10454808;28;20454;-60
2021/07/20 15:55:33;;;;;;;9.98;7.30;;;23.20;62.80;;;;;;10454255;28;20041;-60
2021/07/20 16:00:35;;;;;;;10.02;7.57;;;23.20;62.70;;;;;;10454609;28;20033;-60
2021/07/20 16:05:38;;;;;;;12.02;8.38;;;23.20;62.80;;;;;;10454162;28;20029;-59
2021/07/20 16:10:39;;;;;;;10.60;8.02;;;23.20;62.90;;;;;;10454360;28;20041;-59
2021/07/20 16:15:41;;;;;;;11.80;7.15;;;23.20;62.80;;;;;;10453892;28;20040;-60
2021/07/20 16:21:00;;;;;;;9.10;7.35;;;23.20;63.00;;;;;;10460228;28;20036;-60
2021/07/20 16:26:08;;;;;;;;;;;23.20;63.00;;;;;;10461248;28;20029;-60
2021/07/20 16:31:10;;;;;;;10.05;7.05;;;23.20;62.90;;;;;;10461282;28;19916;-60
2021/07/20 16:36:12;;;;;;;8.80;7.20;;;23.20;63.00;;;;;;10460910;28;20477;-60
2021/07/20 16:41:21;;;;;;;8.07;6.50;;;23.20;63.00;;;;;;10460668;28;20052;-60
2021/07/20 16:46:24;;;;;;;9.65;6.60;;;23.20;63.00;;;;;;10460605;28;20033;-59
2021/07/20 16:51:27;;;;;;;9.10;7.60;;;23.20;63.10;;;;;;10442980;28;20028;-59
2021/07/20 16:56:34;;;;;;;10.43;8.00;;;23.20;63.10;;;;;;10442602;28;20033;-60
2021/07/20 17:01:41;;;;;;;9.07;7.20;;;23.20;63.10;;;;;;10460089;28;20028;-60
2021/07/20 17:06:43;;;;;;;10.05;7.10;;;23.20;63.10;;;;;;10459509;28;20032;-59
2021/07/20 17:11:45;;;;;;;8.23;6.70;;;23.20;63.10;;;;;;10459979;28;20036;-60
2021/07/20 17:16:47;;;;;;;9.02;7.00;;;23.20;63.10;;;;;;10441282;28;20171;-60
2021/07/20 17:21:48;;;;;;;9.50;7.65;;;23.20;63.00;;;;;;10448426;28;20037;-59
2021/07/20 17:26:50;;;;;;;11.20;7.82;;;23.20;63.00;;;;;;10440759;28;20093;-60
2021/07/20 17:31:57;;;;;;;8.20;6.70;;;23.20;62.90;;;;;;10458791;28;20028;-59
2021/07/20 17:37:08;;;;;;;9.60;7.88;;;23.20;63.10;;;;;;10438592;28;20036;-59
2021/07/20 17:47:22;;;;;;;12.25;6.80;;;23.20;63.20;;;;;;10431843;28;20029;-58
2021/07/20 17:52:26;;;;;;;9.57;6.40;;;23.20;63.30;;;;;;10438787;28;20078;-59
2021/07/20 17:57:29;;;;;;;11.10;6.97;;;23.20;63.40;;;;;;10430647;28;20025;-57
2021/07/20 18:02:31;;;;;;;11.75;6.57;;;23.20;63.60;;;;;;10443049;28;20052;-58
2021/07/20 18:07:33;;;;;;;10.38;6.15;;;23.20;63.60;;;;;;10452310;28;20051;-59
2021/07/20 18:12:35;;;;;;;11.30;7.45;;;23.20;63.40;;;;;;10456119;28;20029;-59
2021/07/20 18:17:36;;;;;;;11.43;6.53;;;23.30;63.90;;;;;;10455380;28;20103;-59
2021/07/20 18:22:37;;;;;;;9.00;6.57;;;23.30;64.00;;;;;;10456796;28;20025;-59
2021/07/20 18:27:38;;;;;;;8.90;6.90;;;23.30;64.10;;;;;;10454834;28;20036;-59
2021/07/20 18:32:39;;;;;;;8.02;6.70;;;23.30;64.10;;;;;;10455071;28;20377;-59
2021/07/20 18:37:40;;;;;;;11.07;6.75;;;23.30;64.10;;;;;;10436904;28;20048;-58
2021/07/20 18:42:41;;;;;;;8.60;6.55;;;23.30;64.10;;;;;;10453546;28;20047;-58
2021/07/20 18:47:43;;;;;;;12.48;7.57;;;23.30;64.30;;;;;;10452979;28;20119;-58
2021/07/20 18:52:45;;;;;;;9.68;6.82;;;23.30;64.30;;;;;;10455531;28;20033;-58
2021/07/20 18:57:46;;;;;;;10.93;6.72;;;23.30;64.30;;;;;;10453782;28;20082;-59
2021/07/20 19:02:49;;;;;;;9.27;6.60;;;23.30;64.10;;;;;;10436140;28;20060;-59
2021/07/20 19:07:50;;;;;;;10.10;6.88;;;23.30;64.00;;;;;;10453270;28;20029;-59
2021/07/20 19:12:51;;;;;;;8.63;6.60;;;23.30;63.90;;;;;;10453778;28;20025;-60
2021/07/20 19:17:51;;;;;;;9.13;6.20;;;23.30;63.90;;;;;;10436080;28;20029;-58
2021/07/20 19:22:52;;;;;;;10.38;6.38;;;23.30;64.10;;;;;;10457359;28;20099;-58
2021/07/20 19:27:53;;;;;;;10.13;6.32;;;23.30;64.60;;;;;;10435742;28;20492;-59
2021/07/20 19:32:56;;;;;;;10.93;6.97;;;23.30;64.50;;;;;;10454426;28;20031;-60
2021/07/20 19:37:56;;;;;;;8.60;6.43;;;23.30;64.40;;;;;;10439691;28;20052;-60
2021/07/20 19:42:58;;;;;;;8.68;6.28;;;23.30;64.30;;;;;;10453644;28;20091;-60
2021/07/20 19:48:00;;;;;;;9.48;7.00;;;23.30;64.30;;;;;;10452717;28;20029;-61
2021/07/20 19:53:01;;;;;;;10.40;6.60;;;23.20;64.20;;;;;;10453908;28;20029;-61
2021/07/20 19:58:02;;;;;;;9.95;6.78;;;23.20;64.10;;;;;;10440294;28;20400;-60
2021/07/20 20:03:03;;;;;;;7.32;6.57;;;23.20;64.20;;;;;;10429946;28;20033;-60
2021/07/20 20:08:04;;;;;;;9.40;7.25;;;23.20;64.30;;;;;;10461456;28;20063;-60
2021/07/20 20:13:06;;;;;;;7.57;6.43;;;23.20;64.30;;;;;;10444136;28;20036;-60
2021/07/20 20:18:07;;;;;;;11.00;7.10;;;23.20;64.40;;;;;;10461602;28;20037;-60
2021/07/20 20:23:08;;;;;;;7.82;6.20;;;23.20;64.30;;;;;;10467056;28;20155;-60
2021/07/20 20:28:08;;;;;;;8.02;6.88;;;23.20;64.40;;;;;;10461130;28;20029;-60
2021/07/20 20:33:09;;;;;;;9.90;7.82;;;23.20;64.40;;;;;;10443963;28;20025;-59
2021/07/20 20:38:10;;;;;;;8.77;6.57;;;23.20;64.50;;;;;;10460509;28;20036;-60
2021/07/20 20:43:10;;;;;;;7.35;6.40;;;23.20;64.50;;;;;;10460193;28;20541;-60
2021/07/20 20:48:11;;;;;;;7.63;6.45;;;23.20;64.50;;;;;;10443211;28;20112;-60
2021/07/20 20:53:13;;;;;;;6.85;6.07;;;23.20;64.50;;;;;;10460232;28;20100;-60
2021/07/20 20:58:13;;;;;;;10.88;6.75;;;23.20;64.50;;;;;;10460303;28;20032;-60
2021/07/20 21:03:14;;;;;;;8.25;6.00;;;23.20;64.50;;;;;;10460093;28;20040;-60
2021/07/20 21:08:18;;;;;;;8.65;6.00;;;23.10;64.40;;;;;;10458503;28;20162;-60
2021/07/20 21:13:19;;;;;;;6.90;5.43;;;23.10;64.40;;;;;;10460132;28;20024;-60
2021/07/20 21:18:20;;;;;;;7.60;6.68;;;23.10;64.40;;;;;;10459230;28;20071;-60
2021/07/20 21:23:21;;;;;;;8.55;6.90;;;23.10;64.40;;;;;;10466927;28;20108;-60
2021/07/20 21:28:21;;;;;;;6.88;6.03;;;23.10;64.50;;;;;;10441861;28;20043;-60
2021/07/20 21:33:22;;;;;;;7.82;6.38;;;23.10;64.50;;;;;;10458645;28;20037;-60
2021/07/20 21:38:23;;;;;;;7.72;5.97;;;23.10;64.50;;;;;;10458592;28;20035;-60
2021/07/20 21:43:23;;;;;;;8.25;6.03;;;23.10;64.50;;;;;;10458654;28;20492;-60
2021/07/20 21:48:25;;;;;;;6.88;5.90;;;23.10;64.50;;;;;;10457972;28;20132;-60
2021/07/20 21:53:26;;;;;;;6.38;5.53;;;23.10;64.50;;;;;;10458145;28;20025;-60
2021/07/20 21:58:27;;;;;;;8.18;6.13;;;23.10;64.50;;;;;;10439932;28;20025;-60
2021/07/20 22:03:28;;;;;;;7.50;5.65;;;23.10;64.50;;;;;;10439979;28;20052;-60
2021/07/20 22:08:30;;;;;;;9.50;6.47;;;23.10;64.50;;;;;;10457387;28;20120;-60
2021/07/20 22:13:31;;;;;;;7.25;5.70;;;23.10;64.50;;;;;;10457063;28;20029;-60
2021/07/20 22:18:32;;;;;;;6.53;5.60;;;23.10;64.40;;;;;;10439231;28;20040;-60
2021/07/20 22:23:34;;;;;;;8.68;7.22;;;23.10;64.40;;;;;;10462748;28;20115;-60
2021/07/20 22:28:39;;;;;;;7.60;6.25;;;23.10;64.40;;;;;;10438808;28;20086;-60
2021/07/20 22:33:40;;;;;;;8.57;6.22;;;23.10;64.40;;;;;;10456701;28;20064;-60
2021/07/20 22:38:40;;;;;;;7.38;6.47;;;23.00;64.30;;;;;;10456052;28;20052;-61
2021/07/20 22:43:41;;;;;;;8.55;5.88;;;23.00;64.30;;;;;;10456589;28;20068;-60
2021/07/20 22:48:42;;;;;;;6.53;5.50;;;23.00;64.40;;;;;;10420808;28;20048;-60
2021/07/20 22:53:43;;;;;;;7.35;6.50;;;23.00;64.30;;;;;;10455920;28;20395;-60
2021/07/20 22:58:44;;;;;;;8.70;6.75;;;23.00;64.30;;;;;;10456001;28;20029;-61
2021/07/20 23:03:45;;;;;;;7.75;6.93;;;23.00;64.20;;;;;;10455829;28;20049;-60
2021/07/20 23:08:45;;;;;;;7.25;5.95;;;23.00;64.30;;;;;;10455040;28;20065;-60
2021/07/20 23:13:46;;;;;;;7.82;6.18;;;23.00;64.30;;;;;;10413139;28;20480;-60
2021/07/20 23:18:47;;;;;;;9.38;5.97;;;23.00;64.20;;;;;;10455425;28;20099;-60
2021/07/20 23:23:49;;;;;;;7.47;5.80;;;23.00;64.10;;;;;;10460839;28;20056;-60
2021/07/20 23:28:50;;;;;;;7.85;6.45;;;23.00;64.10;;;;;;10455059;28;20029;-61
2021/07/20 23:33:51;;;;;;;7.20;6.15;;;23.00;64.10;;;;;;10460957;28;20025;-60
2021/07/20 23:38:51;;;;;;;7.05;5.90;;;23.00;64.10;;;;;;10463306;28;20049;-60
2021/07/20 23:43:52;;;;;;;7.55;6.43;;;23.00;64.00;;;;;;10463250;28;20072;-60
2021/07/20 23:48:53;;;;;;;8.10;6.88;;;23.00;63.90;;;;;;10462850;28;20116;-60
2021/07/20 23:53:53;;;;;;;7.30;5.60;;;22.90;63.90;;;;;;10462711;28;20504;-60
2021/07/20 23:58:54;;;;;;;9.00;6.57;;;22.90;63.90;;;;;;10462856;28;20144;-60
